Time;durP1;ratioP1;P1;durP2;ratioP2;P2;SDS_P1;SDS_P2;PMS_P1;PMS_P2;Temp;Humidity;BMP_temperature;BMP_pressure;BME280_temperature;BME280_humidity;BME280_pressure;Samples;Min_cycle;Max_cycle;Signal;HPM_P1;HPM_P2
2023/09/05 00:01:54;;;;;;;4.32;3.78;;;22.30;97.00;;;;;;4977138;28;20033;-74
2023/09/05 00:04:20;;;;;;;4.22;3.28;;;22.20;97.30;;;;;;4976698;28;20094;-74
2023/09/05 00:06:49;;;;;;;5.50;3.15;;;22.20;97.40;;;;;;4958879;28;20122;-76
2023/09/05 00:09:19;;;;;;;6.82;3.40;;;22.20;97.50;;;;;;4976792;28;20093;-73
2023/09/05 00:11:45;;;;;;;4.60;3.17;;;22.20;97.50;;;;;;4976940;28;20031;-73
2023/09/05 00:14:11;;;;;;;4.72;3.42;;;22.10;97.60;;;;;;4976753;28;20015;-71
2023/09/05 00:16:40;;;;;;;3.88;3.38;;;22.10;97.70;;;;;;4975620;28;20070;-76
2023/09/05 00:19:06;;;;;;;4.55;3.40;;;22.10;97.70;;;;;;4976077;28;20057;-74
2023/09/05 00:21:31;;;;;;;4.20;3.17;;;22.10;97.70;;;;;;4976003;28;20030;-76
2023/09/05 00:24:31;;;;;;;4.05;3.40;;;22.10;97.80;;;;;;4976063;28;20216;-76
2023/09/05 00:26:58;;;;;;;4.55;3.13;;;22.10;97.80;;;;;;4975622;28;20030;-73
2023/09/05 00:29:26;;;;;;;3.72;3.35;;;22.00;97.70;;;;;;4976360;28;20027;-72
2023/09/05 00:31:59;;;;;;;4.93;3.30;;;22.00;97.90;;;;;;4976173;28;20023;-75
2023/09/05 00:34:32;;;;;;;5.35;3.10;;;22.00;97.90;;;;;;4958678;28;20069;-75
2023/09/05 00:37:00;;;;;;;5.72;2.90;;;22.00;97.50;;;;;;4975365;28;20031;-71
2023/09/05 00:39:27;;;;;;;3.60;3.03;;;22.00;97.50;;;;;;4976114;28;20034;-71
2023/09/05 00:41:54;;;;;;;3.75;2.95;;;22.00;97.70;;;;;;4976391;28;20061;-75
2023/09/05 00:44:20;;;;;;;5.50;3.20;;;22.00;97.60;;;;;;4976323;28;20023;-76
2023/09/05 00:46:46;;;;;;;6.15;3.08;;;21.90;97.80;;;;;;4975519;28;20019;-76
2023/09/05 00:49:15;;;;;;;4.93;3.42;;;21.90;97.70;;;;;;4975769;28;20523;-72
2023/09/05 00:51:50;;;;;;;4.90;2.95;;;21.90;97.40;;;;;;4976064;28;20030;-75
2023/09/05 00:54:16;;;;;;;5.68;3.63;;;21.90;97.30;;;;;;4976350;28;20081;-75
2023/09/05 00:56:43;;;;;;;4.50;3.17;;;21.90;97.40;;;;;;4975215;28;20039;-72
2023/09/05 00:59:10;;;;;;;4.85;3.53;;;21.90;97.30;;;;;;4958059;28;20030;-75
2023/09/05 01:01:36;;;;;;;5.05;3.15;;;21.90;97.30;;;;;;4958358;28;20031;-75
2023/09/05 01:04:02;;;;;;;3.80;3.10;;;21.80;97.30;;;;;;4975658;28;20027;-73
2023/09/05 01:06:33;;;;;;;3.65;3.13;;;21.80;97.40;;;;;;4974757;28;20022;-76
2023/09/05 01:09:17;;;;;;;7.80;3.27;;;21.80;97.30;;;;;;4975341;28;20031;-71
2023/09/05 01:11:43;;;;;;;4.30;3.33;;;21.80;97.40;;;;;;4975665;28;20095;-73
2023/09/05 01:14:08;;;;;;;5.80;3.10;;;21.80;97.30;;;;;;4958418;28;20031;-76
2023/09/05 01:16:34;;;;;;;4.18;3.15;;;21.80;97.40;;;;;;4974176;28;20499;-71
2023/09/05 01:19:01;;;;;;;4.72;3.08;;;21.80;97.40;;;;;;4975464;28;20065;-74
2023/09/05 01:21:34;;;;;;;3.40;3.10;;;21.80;97.50;;;;;;4975517;28;20097;-73
2023/09/05 01:24:20;;;;;;;3.42;3.00;;;21.80;97.60;;;;;;4975495;28;20042;-71
2023/09/05 01:26:47;;;;;;;3.78;2.88;;;21.70;97.60;;;;;;4974437;28;20086;-75
2023/09/05 01:29:15;;;;;;;7.70;3.42;;;21.70;97.70;;;;;;4958095;28;20066;-74
2023/09/05 01:31:45;;;;;;;5.35;3.33;;;21.70;97.70;;;;;;4957674;28;20023;-74
2023/09/05 01:34:11;;;;;;;3.65;3.10;;;21.70;97.90;;;;;;4975437;28;20098;-75
2023/09/05 01:36:36;;;;;;;3.40;3.10;;;21.70;98.00;;;;;;4973936;28;20126;-75
2023/09/05 01:39:02;;;;;;;4.05;3.33;;;21.60;98.00;;;;;;4975066;28;20423;-71
2023/09/05 01:41:28;;;;;;;8.55;3.80;;;21.70;97.90;;;;;;4975117;28;20453;-75
2023/09/05 01:43:53;;;;;;;5.88;3.95;;;21.60;97.90;;;;;;4974882;28;20503;-75
2023/09/05 01:46:19;;;;;;;3.85;3.28;;;21.60;97.80;;;;;;4973863;28;20091;-75
2023/09/05 01:48:44;;;;;;;4.13;3.47;;;21.60;97.90;;;;;;4975142;28;20023;-72
2023/09/05 01:51:10;;;;;;;3.83;3.50;;;21.60;97.90;;;;;;4974884;28;20101;-71
2023/09/05 01:53:36;;;;;;;6.78;3.63;;;21.60;97.90;;;;;;4957779;28;20038;-72
2023/09/05 01:56:01;;;;;;;6.45;3.70;;;21.60;97.90;;;;;;4973898;28;20588;-75
2023/09/05 01:58:27;;;;;;;3.75;3.20;;;21.50;97.90;;;;;;4974896;28;20035;-75
2023/09/05 02:00:52;;;;;;;6.20;3.65;;;21.60;98.00;;;;;;4974490;28;20098;-73
2023/09/05 02:03:18;;;;;;;5.45;3.10;;;21.50;98.00;;;;;;4974860;28;20030;-75
2023/09/05 02:05:43;;;;;;;4.93;3.35;;;21.50;97.90;;;;;;4973099;28;20397;-71
2023/09/05 02:08:09;;;;;;;5.40;3.78;;;21.50;98.00;;;;;;4956769;28;20034;-74
2023/09/05 02:10:35;;;;;;;6.47;3.90;;;21.50;98.00;;;;;;4974675;28;20484;-71
2023/09/05 02:13:00;;;;;;;4.82;3.83;;;21.40;98.00;;;;;;4974453;28;20031;-76
2023/09/05 02:15:26;;;;;;;5.72;3.65;;;21.40;98.00;;;;;;4973661;28;20094;-74
2023/09/05 02:17:55;;;;;;;4.65;3.83;;;21.40;98.00;;;;;;4974193;28;20042;-75
2023/09/05 02:20:21;;;;;;;5.75;4.07;;;21.40;98.00;;;;;;4973960;28;20018;-74
2023/09/05 02:22:47;;;;;;;5.45;4.55;;;21.40;98.00;;;;;;4973763;28;20559;-73
2023/09/05 02:25:12;;;;;;;4.30;3.90;;;21.40;98.00;;;;;;4973723;28;20026;-71
2023/09/05 02:27:38;;;;;;;5.70;4.38;;;21.40;98.00;;;;;;4974374;28;20070;-73
2023/09/05 02:30:06;;;;;;;6.20;4.50;;;21.30;98.00;;;;;;4974180;28;20041;-72
2023/09/05 02:32:32;;;;;;;5.88;5.10;;;21.30;98.00;;;;;;4974539;28;20030;-75
2023/09/05 02:35:01;;;;;;;5.20;4.65;;;21.30;98.00;;;;;;4973457;28;20035;-74
2023/09/05 02:37:27;;;;;;;6.15;5.40;;;21.30;98.00;;;;;;4956867;28;20439;-74
2023/09/05 02:39:53;;;;;;;5.68;5.15;;;21.30;98.00;;;;;;4974577;28;20030;-71
2023/09/05 02:42:18;;;;;;;6.68;5.18;;;21.30;98.10;;;;;;4973791;28;20491;-72
2023/09/05 02:44:44;;;;;;;6.10;5.13;;;21.30;98.00;;;;;;4973840;28;20404;-71
2023/09/05 02:47:10;;;;;;;8.23;5.47;;;21.30;98.00;;;;;;4974271;28;20443;-74
2023/09/05 02:49:36;;;;;;;8.23;5.78;;;21.30;98.00;;;;;;4977967;28;20512;-76
2023/09/05 02:52:01;;;;;;;6.00;5.28;;;21.20;98.00;;;;;;4978187;28;20031;-71
2023/09/05 02:54:30;;;;;;;6.55;5.50;;;21.20;98.00;;;;;;4977446;28;20031;-75
2023/09/05 02:56:55;;;;;;;7.18;6.00;;;21.20;98.10;;;;;;4977975;28;20170;-76
2023/09/05 02:59:22;;;;;;;10.15;5.45;;;21.30;98.10;;;;;;4977945;28;20488;-71
2023/09/05 03:01:47;;;;;;;7.00;5.90;;;21.20;98.20;;;;;;4976779;28;20083;-72
2023/09/05 03:04:16;;;;;;;6.30;5.68;;;21.20;98.20;;;;;;4978009;28;20030;-72
2023/09/05 03:06:42;;;;;;;6.70;5.82;;;21.20;98.10;;;;;;4976610;28;20049;-74
2023/09/05 03:09:08;;;;;;;8.80;5.57;;;21.20;98.20;;;;;;4977662;28;20536;-74
2023/09/05 03:11:34;;;;;;;6.90;5.68;;;21.20;98.10;;;;;;4978062;28;20078;-74
2023/09/05 03:14:01;;;;;;;7.97;5.50;;;21.20;98.10;;;;;;4977406;28;20026;-72
2023/09/05 03:16:28;;;;;;;5.82;5.22;;;21.10;98.00;;;;;;4976472;28;20093;-72
2023/09/05 03:18:59;;;;;;;5.93;5.30;;;21.10;98.10;;;;;;4982814;28;20026;-71
2023/09/05 03:21:28;;;;;;;10.57;5.47;;;21.10;98.00;;;;;;4997339;28;20069;-72
2023/09/05 03:23:53;;;;;;;8.55;4.97;;;21.10;98.10;;;;;;4997083;28;20092;-71
2023/09/05 03:26:19;;;;;;;5.47;4.93;;;21.10;98.00;;;;;;4996501;28;20532;-73
2023/09/05 03:28:46;;;;;;;5.68;4.95;;;21.10;98.00;;;;;;4996912;28;20030;-72
2023/09/05 03:31:11;;;;;;;5.82;4.70;;;21.10;98.00;;;;;;4997060;28;20112;-71
2023/09/05 03:33:37;;;;;;;7.22;5.53;;;21.00;98.00;;;;;;4997131;28;20023;-72
2023/09/05 03:36:05;;;;;;;5.43;4.85;;;21.00;97.90;;;;;;4996017;28;20453;-71
2023/09/05 03:38:31;;;;;;;9.73;5.13;;;21.00;98.00;;;;;;4996664;28;20499;-71
2023/09/05 03:40:57;;;;;;;5.05;4.55;;;21.00;98.00;;;;;;4996991;28;20018;-71
2023/09/05 03:43:23;;;;;;;6.03;4.57;;;21.00;97.90;;;;;;4996540;28;20026;-71
2023/09/05 03:45:49;;;;;;;5.05;4.38;;;20.90;97.90;;;;;;4995503;28;20023;-71
2023/09/05 03:48:15;;;;;;;8.55;5.10;;;20.90;98.00;;;;;;4996192;28;20061;-71
2023/09/05 03:50:41;;;;;;;4.93;4.10;;;20.90;97.90;;;;;;4996698;28;20057;-71
2023/09/05 03:53:06;;;;;;;5.68;4.45;;;21.00;97.90;;;;;;4996612;28;20062;-75
2023/09/05 03:55:34;;;;;;;6.95;4.45;;;20.90;97.90;;;;;;4995201;28;20030;-72
2023/09/05 03:58:00;;;;;;;4.47;3.78;;;21.00;97.90;;;;;;4995869;28;20492;-72
2023/09/05 04:00:26;;;;;;;6.53;4.38;;;20.90;97.90;;;;;;4996279;28;20030;-72
2023/09/05 04:02:51;;;;;;;4.80;4.10;;;20.90;97.90;;;;;;4996472;28;20033;-72
2023/09/05 04:05:17;;;;;;;4.50;4.10;;;20.90;97.90;;;;;;4995679;28;20026;-71
2023/09/05 04:07:43;;;;;;;6.22;4.25;;;20.90;98.00;;;;;;4996354;28;20026;-71
2023/09/05 04:10:08;;;;;;;4.90;4.43;;;20.90;97.80;;;;;;4993643;28;20483;-76
2023/09/05 04:12:34;;;;;;;5.03;4.32;;;20.90;98.00;;;;;;4991883;28;20361;-70
2023/09/05 04:15:00;;;;;;;6.05;4.10;;;20.90;97.90;;;;;;4995655;28;20029;-70
2023/09/05 04:17:25;;;;;;;6.28;4.50;;;20.80;98.00;;;;;;4994955;28;20030;-71
2023/09/05 04:19:53;;;;;;;5.60;4.82;;;20.80;98.00;;;;;;4996074;28;20030;-74
2023/09/05 04:22:20;;;;;;;8.02;4.30;;;20.80;98.00;;;;;;4993799;28;20030;-71
2023/09/05 04:24:45;;;;;;;5.45;4.38;;;20.90;98.10;;;;;;4994959;28;20109;-74
2023/09/05 04:27:11;;;;;;;4.63;4.00;;;20.80;98.00;;;;;;4995722;28;20114;-71
2023/09/05 04:29:37;;;;;;;6.70;4.85;;;20.90;98.10;;;;;;4994400;28;20029;-72
2023/09/05 04:32:02;;;;;;;7.25;5.15;;;20.80;97.50;;;;;;4995591;28;20034;-73
2023/09/05 04:34:29;;;;;;;5.28;4.78;;;20.70;97.40;;;;;;4993874;28;20524;-76
2023/09/05 04:36:56;;;;;;;5.72;5.07;;;20.70;97.50;;;;;;4995432;28;20034;-72
2023/09/05 04:39:21;;;;;;;8.00;4.88;;;20.60;97.50;;;;;;4995433;28;20484;-73
2023/09/05 04:41:47;;;;;;;9.73;4.10;;;20.60;97.60;;;;;;4995576;28;20041;-73
2023/09/05 04:44:12;;;;;;;7.22;4.20;;;20.70;98.40;;;;;;4995752;28;20515;-73
2023/09/05 04:46:39;;;;;;;5.35;3.88;;;20.80;98.40;;;;;;4995728;28;20030;-73
2023/09/05 04:49:05;;;;;;;8.93;4.25;;;20.80;98.30;;;;;;4995614;28;20027;-72
2023/09/05 04:51:30;;;;;;;5.28;3.90;;;20.90;98.30;;;;;;4995524;28;20134;-72
2023/09/05 04:53:56;;;;;;;5.57;3.83;;;20.90;98.20;;;;;;4995459;28;20022;-73
2023/09/05 04:56:22;;;;;;;6.97;4.28;;;20.90;98.10;;;;;;4993897;28;20034;-72
2023/09/05 04:58:49;;;;;;;5.45;3.90;;;20.90;98.00;;;;;;4995485;28;20023;-74
2023/09/05 05:01:17;;;;;;;5.97;3.78;;;20.90;98.00;;;;;;4995203;28;20027;-73
2023/09/05 05:03:43;;;;;;;4.32;3.72;;;21.00;98.00;;;;;;4995230;28;20026;-74
2023/09/05 05:06:08;;;;;;;6.53;4.63;;;21.00;97.90;;;;;;4995047;28;20033;-72
2023/09/05 05:08:34;;;;;;;6.13;4.20;;;20.90;98.10;;;;;;4994874;28;20043;-74
2023/09/05 05:11:04;;;;;;;4.00;3.60;;;21.00;97.90;;;;;;4994612;28;20029;-73
2023/09/05 05:13:29;;;;;;;8.65;4.22;;;20.90;98.00;;;;;;4995106;28;20034;-75
2023/09/05 05:15:55;;;;;;;5.15;4.25;;;20.90;97.90;;;;;;4995041;28;20034;-74
2023/09/05 05:18:20;;;;;;;5.60;4.07;;;20.90;97.90;;;;;;4994897;28;20109;-74
2023/09/05 05:20:46;;;;;;;7.22;4.13;;;21.00;97.90;;;;;;4994824;28;20048;-71
2023/09/05 05:23:12;;;;;;;5.95;4.22;;;20.90;97.80;;;;;;4994616;28;20041;-75
2023/09/05 05:25:37;;;;;;;5.00;3.63;;;20.90;97.70;;;;;;4994924;28;20535;-74
2023/09/05 05:28:05;;;;;;;6.05;3.72;;;20.90;97.80;;;;;;4993774;28;20101;-74
2023/09/05 05:30:35;;;;;;;7.70;3.70;;;20.90;97.70;;;;;;4994497;28;20030;-72
2023/09/05 05:33:01;;;;;;;4.43;3.95;;;20.90;97.70;;;;;;5009014;28;20053;-73
2023/09/05 05:35:27;;;;;;;6.30;4.18;;;20.90;97.70;;;;;;4992185;28;20428;-72
2023/09/05 05:37:52;;;;;;;5.32;3.70;;;20.90;97.80;;;;;;4990184;28;20038;-74
2023/09/05 05:40:18;;;;;;;5.53;3.95;;;20.90;97.70;;;;;;4991985;28;20018;-75
2023/09/05 05:42:44;;;;;;;5.18;3.42;;;20.90;97.70;;;;;;4995981;28;20034;-74
2023/09/05 05:45:10;;;;;;;6.25;3.72;;;20.80;97.50;;;;;;5000404;28;20101;-72
2023/09/05 05:47:35;;;;;;;5.90;3.58;;;20.90;97.40;;;;;;5013837;28;20033;-72
2023/09/05 05:50:01;;;;;;;5.75;3.83;;;20.80;97.50;;;;;;5014113;28;20104;-72
2023/09/05 05:52:27;;;;;;;5.35;3.92;;;20.80;97.50;;;;;;5010019;28;20399;-74
2023/09/05 05:54:53;;;;;;;6.80;3.95;;;20.80;97.90;;;;;;4993427;28;20038;-73
2023/09/05 05:57:18;;;;;;;4.43;3.38;;;20.80;97.70;;;;;;4993095;28;20129;-74
2023/09/05 05:59:44;;;;;;;4.13;3.22;;;20.90;97.60;;;;;;4992503;28;20034;-72
2023/09/05 06:02:10;;;;;;;6.00;3.65;;;20.80;97.70;;;;;;4993567;28;20499;-75
2023/09/05 06:04:35;;;;;;;6.18;3.75;;;20.80;97.80;;;;;;5011264;28;20049;-73
2023/09/05 06:07:01;;;;;;;7.18;3.90;;;20.80;98.10;;;;;;5013276;28;20152;-72
2023/09/05 06:09:28;;;;;;;5.03;4.30;;;20.80;97.80;;;;;;4992804;28;20479;-74
2023/09/05 06:11:54;;;;;;;4.70;4.13;;;20.90;97.80;;;;;;4990683;28;20041;-74
2023/09/05 06:14:20;;;;;;;5.40;3.58;;;20.80;97.70;;;;;;4991590;28;20026;-72
2023/09/05 06:16:48;;;;;;;6.10;4.00;;;20.80;97.90;;;;;;4991220;28;20068;-74
2023/09/05 06:19:15;;;;;;;7.10;4.72;;;20.80;97.60;;;;;;4993796;28;20419;-74
2023/09/05 06:21:45;;;;;;;7.05;3.40;;;20.80;97.50;;;;;;4992613;28;20029;-73
2023/09/05 06:24:11;;;;;;;6.18;3.85;;;20.80;97.50;;;;;;4987710;28;20409;-74
2023/09/05 06:26:38;;;;;;;6.50;3.67;;;20.80;97.60;;;;;;4990029;28;20022;-72
2023/09/05 06:29:03;;;;;;;8.50;3.85;;;20.80;97.60;;;;;;4993387;28;20018;-73
2023/09/05 06:31:30;;;;;;;8.85;3.90;;;20.80;97.70;;;;;;4991093;28;20365;-73
2023/09/05 06:33:55;;;;;;;4.38;3.47;;;20.80;97.90;;;;;;4991942;28;20464;-73
2023/09/05 06:36:22;;;;;;;5.53;3.92;;;20.80;97.80;;;;;;4991836;28;20046;-74
2023/09/05 06:38:47;;;;;;;10.43;4.00;;;20.80;97.70;;;;;;4991876;28;20025;-74
2023/09/05 06:41:13;;;;;;;5.35;3.45;;;20.80;97.60;;;;;;4992152;28;20038;-74
2023/09/05 06:43:38;;;;;;;7.57;4.00;;;20.90;97.80;;;;;;4991401;28;20456;-74
2023/09/05 06:46:05;;;;;;;12.50;4.43;;;20.90;97.90;;;;;;4992170;28;20050;-74
2023/09/05 06:48:33;;;;;;;5.40;3.20;;;20.90;97.60;;;;;;4991224;28;20081;-74
2023/09/05 06:51:02;;;;;;;5.90;3.53;;;20.90;97.60;;;;;;4986706;28;20022;-74
2023/09/05 06:53:36;;;;;;;6.55;3.92;;;20.90;97.60;;;;;;4990485;28;20068;-74
2023/09/05 06:56:01;;;;;;;5.28;3.28;;;20.90;97.50;;;;;;4989874;28;20041;-74
2023/09/05 06:58:27;;;;;;;4.18;3.80;;;20.90;97.70;;;;;;4993334;28;20034;-74
2023/09/05 07:00:56;;;;;;;4.22;3.47;;;21.00;97.60;;;;;;4992653;28;20038;-74
2023/09/05 07:03:25;;;;;;;9.90;4.25;;;21.00;97.60;;;;;;4988884;28;20109;-73
2023/09/05 07:05:53;;;;;;;4.68;3.80;;;21.00;97.60;;;;;;4986232;28;20027;-74
2023/09/05 07:08:19;;;;;;;6.15;4.40;;;21.10;97.60;;;;;;4986265;28;20102;-75
2023/09/05 07:10:47;;;;;;;5.57;3.90;;;21.00;97.70;;;;;;4987869;28;20117;-75
2023/09/05 07:13:12;;;;;;;6.50;3.58;;;21.10;97.70;;;;;;4988592;28;20480;-74
2023/09/05 07:15:38;;;;;;;6.55;3.90;;;21.00;97.60;;;;;;4986459;28;20040;-73
2023/09/05 07:18:04;;;;;;;7.13;3.75;;;21.00;97.70;;;;;;4984798;28;20039;-74
2023/09/05 07:20:31;;;;;;;6.90;3.85;;;21.10;97.80;;;;;;4979042;28;20034;-74
2023/09/05 07:22:57;;;;;;;5.25;3.20;;;21.10;97.70;;;;;;4972320;28;20030;-73
2023/09/05 07:25:22;;;;;;;4.70;3.58;;;21.20;97.40;;;;;;4969004;28;20027;-73
2023/09/05 07:27:48;;;;;;;4.60;3.35;;;21.20;97.40;;;;;;4975065;28;20023;-72
2023/09/05 07:30:16;;;;;;;8.43;4.15;;;21.20;97.60;;;;;;4968364;28;20382;-74
2023/09/05 07:32:43;;;;;;;7.30;3.20;;;21.20;97.80;;;;;;4970726;28;20027;-74
2023/09/05 07:35:09;;;;;;;6.10;3.60;;;21.20;97.70;;;;;;4977729;28;20034;-73
2023/09/05 07:37:36;;;;;;;4.78;2.78;;;21.30;97.70;;;;;;4983508;28;20041;-73
2023/09/05 07:40:05;;;;;;;8.48;3.70;;;21.30;97.50;;;;;;4979967;28;20027;-72
2023/09/05 07:42:30;;;;;;;5.50;3.50;;;21.30;97.50;;;;;;4973856;28;20066;-74
2023/09/05 07:44:56;;;;;;;5.22;3.65;;;21.30;97.70;;;;;;4979923;28;20502;-74
2023/09/05 07:47:21;;;;;;;7.65;3.40;;;21.40;97.80;;;;;;4978849;28;20163;-73
2023/09/05 07:49:47;;;;;;;6.38;3.60;;;21.40;98.00;;;;;;4973562;28;20381;-72
2023/09/05 07:52:13;;;;;;;8.85;3.60;;;21.50;98.10;;;;;;4983843;28;20088;-73
2023/09/05 07:54:39;;;;;;;5.07;3.00;;;21.50;97.90;;;;;;4974065;28;20162;-75
2023/09/05 07:57:05;;;;;;;5.78;2.90;;;21.50;97.60;;;;;;4980793;28;20039;-71
2023/09/05 07:59:31;;;;;;;4.53;3.25;;;21.60;97.60;;;;;;4976269;28;20042;-72
2023/09/05 08:01:57;;;;;;;4.75;3.35;;;21.60;97.60;;;;;;4982923;28;20484;-72
2023/09/05 08:04:23;;;;;;;5.72;3.15;;;21.70;97.60;;;;;;4984734;28;20041;-74
2023/09/05 08:06:49;;;;;;;6.85;3.15;;;21.70;97.70;;;;;;4975896;28;20106;-73
2023/09/05 08:09:15;;;;;;;5.10;2.97;;;21.70;97.70;;;;;;4971226;28;20052;-77
2023/09/05 08:11:40;;;;;;;5.55;2.92;;;21.80;97.90;;;;;;4974381;28;20034;-78
2023/09/05 08:14:06;;;;;;;6.35;3.10;;;21.80;97.90;;;;;;4978211;28;20404;-76
2023/09/05 08:16:33;;;;;;;6.45;2.60;;;21.80;97.90;;;;;;4978189;28;20162;-73
2023/09/05 08:18:58;;;;;;;9.88;3.28;;;21.90;98.00;;;;;;4977061;28;20484;-75
2023/09/05 08:21:26;;;;;;;3.47;2.35;;;21.90;98.00;;;;;;4980651;28;20435;-76
2023/09/05 08:23:52;;;;;;;3.05;2.38;;;22.00;97.30;;;;;;4976523;28;20500;-77
2023/09/05 08:26:18;;;;;;;5.68;2.88;;;22.00;96.90;;;;;;4977216;28;20026;-74
2023/09/05 08:28:45;;;;;;;6.07;2.63;;;22.10;96.90;;;;;;4978863;28;20034;-75
2023/09/05 08:31:11;;;;;;;4.18;2.40;;;22.10;96.80;;;;;;4973009;28;20041;-73
2023/09/05 08:33:37;;;;;;;6.55;2.92;;;22.10;96.70;;;;;;4973913;28;20022;-74
2023/09/05 08:36:08;;;;;;;3.83;2.60;;;22.10;97.10;;;;;;4978936;28;20513;-76
2023/09/05 08:38:40;;;;;;;5.53;2.38;;;22.20;97.10;;;;;;4962010;28;20054;-75
2023/09/05 08:41:08;;;;;;;6.38;2.58;;;22.20;97.00;;;;;;4975585;28;20031;-74
2023/09/05 08:43:37;;;;;;;6.03;2.55;;;22.20;97.40;;;;;;4980444;28;20043;-76
2023/09/05 08:46:03;;;;;;;5.15;2.40;;;22.20;97.40;;;;;;4972144;28;20027;-75
2023/09/05 08:48:32;;;;;;;5.03;2.47;;;22.20;97.60;;;;;;4974145;28;20484;-75
2023/09/05 08:51:04;;;;;;;8.02;2.67;;;22.30;97.00;;;;;;4954580;28;20392;-77
2023/09/05 08:53:33;;;;;;;3.67;2.30;;;22.30;97.40;;;;;;4981431;28;20162;-77
2023/09/05 08:55:59;;;;;;;9.88;2.60;;;22.30;97.40;;;;;;4972628;28;20027;-78
2023/09/05 08:58:26;;;;;;;6.07;2.10;;;22.30;96.70;;;;;;4968610;28;20542;-76
2023/09/05 09:00:51;;;;;;;7.80;1.98;;;22.40;95.80;;;;;;4977885;28;20109;-76
2023/09/05 09:03:17;;;;;;;4.25;1.95;;;22.50;96.20;;;;;;4976189;28;20117;-78
2023/09/05 09:05:46;;;;;;;2.70;1.60;;;22.50;95.90;;;;;;4969654;28;20080;-79
2023/09/05 09:08:12;;;;;;;2.65;1.63;;;22.50;95.70;;;;;;4975364;28;20081;-76
2023/09/05 09:10:38;;;;;;;2.95;1.80;;;22.60;95.50;;;;;;4978839;28;20023;-77
2023/09/05 09:13:19;;;;;;;3.65;1.88;;;22.60;95.70;;;;;;4958919;28;20158;-75
2023/09/05 09:15:46;;;;;;;5.60;2.50;;;22.60;95.30;;;;;;4973479;28;20022;-75
2023/09/05 09:18:13;;;;;;;7.72;2.20;;;22.60;95.90;;;;;;4978104;28;20075;-75
2023/09/05 09:20:45;;;;;;;5.82;2.10;;;22.60;96.30;;;;;;4987571;28;20465;-75
2023/09/05 09:23:11;;;;;;;11.90;2.67;;;22.60;96.80;;;;;;4991361;28;20450;-76
2023/09/05 09:25:47;;;;;;;6.18;2.20;;;22.70;96.00;;;;;;4989801;28;20038;-75
2023/09/05 09:28:26;;;;;;;3.90;1.45;;;22.70;95.80;;;;;;4986446;28;20025;-76
2023/09/05 09:30:56;;;;;;;3.78;1.67;;;22.80;94.70;;;;;;4992416;28;20058;-77
2023/09/05 09:33:22;;;;;;;4.00;2.13;;;22.80;95.50;;;;;;4994132;28;20035;-76
2023/09/05 09:36:17;;;;;;;5.97;2.20;;;22.80;95.90;;;;;;4993844;28;20483;-77
2023/09/05 09:38:43;;;;;;;3.25;1.98;;;22.80;96.00;;;;;;4981516;28;20046;-78
2023/09/05 09:41:11;;;;;;;4.95;2.10;;;22.80;96.10;;;;;;4993287;28;20085;-75
2023/09/05 09:43:38;;;;;;;6.63;2.00;;;22.80;96.20;;;;;;4994608;28;20018;-79
2023/09/05 09:46:08;;;;;;;5.20;1.90;;;22.80;95.40;;;;;;4994115;28;20038;-79
2023/09/05 09:48:34;;;;;;;2.03;1.63;;;22.90;95.40;;;;;;4991628;28;20033;-77
2023/09/05 09:51:04;;;;;;;3.00;1.90;;;22.90;95.30;;;;;;4991533;28;20026;-79
2023/09/05 09:53:35;;;;;;;6.75;2.20;;;22.90;96.00;;;;;;4994151;28;20045;-78
2023/09/05 09:56:12;;;;;;;3.85;2.10;;;22.90;95.20;;;;;;4991717;28;20018;-75
2023/09/05 09:58:43;;;;;;;3.90;2.55;;;22.90;96.00;;;;;;4991213;28;20365;-79
2023/09/05 10:01:12;;;;;;;5.18;2.30;;;22.90;96.50;;;;;;4991925;28;20042;-75
2023/09/05 10:03:39;;;;;;;3.58;1.90;;;22.90;96.30;;;;;;4992119;28;20030;-76
2023/09/05 10:06:06;;;;;;;4.50;2.38;;;22.90;95.10;;;;;;4990663;28;20022;-76
2023/09/05 10:08:33;;;;;;;3.72;2.00;;;22.90;95.70;;;;;;4988693;28;20029;-74
2023/09/05 10:10:59;;;;;;;2.22;1.75;;;22.90;96.00;;;;;;4990871;28;20026;-73
2023/09/05 10:13:27;;;;;;;2.15;1.60;;;23.00;95.50;;;;;;4992575;28;20111;-72
2023/09/05 10:15:57;;;;;;;4.65;1.75;;;23.00;95.90;;;;;;4993991;28;20069;-78
2023/09/05 10:18:23;;;;;;;5.55;1.50;;;23.00;95.60;;;;;;4991428;28;20060;-76
2023/09/05 10:20:54;;;;;;;4.28;2.28;;;23.00;95.50;;;;;;4970606;28;20015;-73
2023/09/05 10:23:23;;;;;;;4.87;2.40;;;23.00;96.40;;;;;;4967780;28;20031;-77
2023/09/05 10:25:51;;;;;;;3.50;1.98;;;23.00;96.20;;;;;;4972659;28;20030;-77
2023/09/05 10:28:18;;;;;;;2.42;1.75;;;23.10;95.80;;;;;;4973892;28;20074;-78
2023/09/05 10:30:49;;;;;;;4.93;2.00;;;23.00;96.40;;;;;;4974575;28;20030;-76
2023/09/05 10:33:15;;;;;;;3.67;1.95;;;23.10;96.30;;;;;;4973200;28;20133;-73
2023/09/05 10:35:44;;;;;;;8.50;1.90;;;23.10;95.70;;;;;;4956352;28;20026;-79
2023/09/05 10:38:12;;;;;;;5.20;1.95;;;23.20;94.90;;;;;;4969518;28;20039;-78
2023/09/05 10:40:39;;;;;;;5.63;2.00;;;23.20;95.60;;;;;;4979825;28;20045;-76
2023/09/05 10:43:14;;;;;;;2.92;1.90;;;23.20;95.60;;;;;;4972448;28;20062;-74
2023/09/05 10:45:40;;;;;;;4.30;1.63;;;23.20;96.10;;;;;;4972911;28;20030;-73
2023/09/05 10:48:15;;;;;;;2.67;1.70;;;23.20;95.90;;;;;;4973836;28;20027;-78
2023/09/05 10:51:13;;;;;;;3.33;1.60;;;23.20;95.70;;;;;;4956376;28;20030;-72
2023/09/05 10:53:41;;;;;;;5.45;1.75;;;23.20;95.90;;;;;;4971085;28;20034;-75
2023/09/05 10:56:43;;;;;;;3.58;1.70;;;23.20;95.80;;;;;;4973793;28;20046;-72
2023/09/05 10:59:32;;;;;;;3.33;1.48;;;23.30;96.00;;;;;;4973644;28;20117;-78
2023/09/05 11:02:00;;;;;;;10.65;2.58;;;23.30;96.10;;;;;;4966150;28;20480;-73
2023/09/05 11:04:29;;;;;;;4.55;1.90;;;23.40;94.30;;;;;;4940670;28;20023;-72
2023/09/05 11:06:57;;;;;;;3.70;1.70;;;23.50;93.50;;;;;;4974077;28;20018;-72
2023/09/05 11:09:24;;;;;;;2.28;1.83;;;23.60;93.70;;;;;;4975300;28;20329;-72
2023/09/05 11:11:51;;;;;;;3.55;1.40;;;23.60;93.40;;;;;;4977574;28;20034;-78
2023/09/05 11:14:31;;;;;;;3.00;1.60;;;23.70;93.50;;;;;;4977911;28;20058;-73
2023/09/05 11:16:57;;;;;;;6.50;1.85;;;23.70;93.60;;;;;;4978343;28;20035;-77
2023/09/05 11:19:29;;;;;;;3.22;1.65;;;23.70;93.90;;;;;;4985985;28;20038;-73
2023/09/05 11:22:11;;;;;;;;;;;23.70;93.90;;;;;;4995989;28;20031;-73
2023/09/05 11:24:47;;;;;;;3.80;1.50;;;23.70;94.10;;;;;;4997059;28;19910;-78
2023/09/05 11:27:18;;;;;;;3.38;1.60;;;23.70;94.00;;;;;;4996782;28;20015;-74
2023/09/05 11:29:45;;;;;;;3.05;1.90;;;23.70;94.30;;;;;;4997017;28;20058;-75
2023/09/05 11:32:13;;;;;;;3.80;1.90;;;23.70;94.40;;;;;;4996961;28;20014;-77
2023/09/05 11:34:46;;;;;;;3.08;2.00;;;23.70;94.50;;;;;;4997159;28;20023;-78
2023/09/05 11:37:16;;;;;;;2.67;2.00;;;23.80;94.60;;;;;;4996907;28;20038;-76
2023/09/05 11:39:42;;;;;;;2.80;1.73;;;23.80;94.70;;;;;;4996844;28;20033;-77
2023/09/05 11:42:22;;;;;;;3.53;1.90;;;23.80;94.70;;;;;;4996317;28;20026;-74
2023/09/05 11:44:48;;;;;;;3.88;1.70;;;23.80;94.70;;;;;;4976764;28;20603;-78
2023/09/05 11:47:15;;;;;;;3.25;1.63;;;23.80;94.80;;;;;;4976758;28;20558;-73
2023/09/05 11:49:41;;;;;;;2.70;2.03;;;23.80;94.90;;;;;;4977248;28;20066;-73
2023/09/05 11:52:09;;;;;;;5.18;1.70;;;23.80;94.80;;;;;;4977091;28;20035;-74
2023/09/05 11:54:34;;;;;;;3.08;1.83;;;23.90;94.60;;;;;;4976561;28;20022;-73
2023/09/05 11:57:02;;;;;;;3.05;2.08;;;23.90;94.60;;;;;;4977262;28;20039;-78
2023/09/05 11:59:29;;;;;;;4.45;1.90;;;23.90;94.80;;;;;;4976820;28;20046;-78
2023/09/05 12:01:54;;;;;;;2.47;1.88;;;23.90;95.00;;;;;;4977096;28;20140;-78
2023/09/05 12:04:21;;;;;;;4.32;1.88;;;23.90;95.10;;;;;;4976986;28;20043;-74
2023/09/05 12:06:51;;;;;;;4.20;2.30;;;23.90;95.10;;;;;;4977222;28;20054;-72
2023/09/05 12:09:18;;;;;;;2.15;1.63;;;24.00;95.10;;;;;;4976344;28;20030;-78
2023/09/05 12:11:43;;;;;;;3.17;1.70;;;24.00;95.20;;;;;;4976925;28;20027;-74
2023/09/05 12:14:09;;;;;;;3.47;1.60;;;23.90;95.20;;;;;;4977083;28;20384;-72
2023/09/05 12:16:35;;;;;;;3.65;1.77;;;24.00;95.20;;;;;;4976921;28;20380;-72
2023/09/05 12:19:02;;;;;;;3.35;1.67;;;24.00;95.30;;;;;;4976485;28;20492;-72
2023/09/05 12:21:45;;;;;;;1.77;1.40;;;24.00;95.30;;;;;;4975486;28;20525;-77
2023/09/05 12:24:23;;;;;;;2.13;1.65;;;24.00;95.40;;;;;;4974928;28;20026;-72
2023/09/05 12:26:50;;;;;;;2.25;1.63;;;24.00;95.30;;;;;;4976957;28;20034;-79
2023/09/05 12:29:21;;;;;;;3.42;1.92;;;24.00;95.40;;;;;;4976370;28;20109;-77
2023/09/05 12:31:48;;;;;;;1.60;1.40;;;24.10;95.50;;;;;;4976708;28;20023;-77
2023/09/05 12:34:13;;;;;;;2.58;1.52;;;24.10;95.50;;;;;;4993611;28;20383;-72
2023/09/05 12:36:39;;;;;;;3.63;1.85;;;24.10;95.50;;;;;;4996011;28;20057;-71
2023/09/05 12:39:05;;;;;;;3.45;1.50;;;24.10;95.60;;;;;;4994640;28;20030;-72
2023/09/05 12:41:31;;;;;;;5.80;1.52;;;24.10;95.60;;;;;;4995470;28;20033;-80
2023/09/05 12:43:58;;;;;;;2.72;1.50;;;24.10;95.60;;;;;;4995525;28;20029;-75
2023/09/05 12:46:24;;;;;;;2.10;1.67;;;24.10;95.70;;;;;;4995593;28;20034;-73
2023/09/05 12:48:53;;;;;;;3.17;1.50;;;24.10;95.70;;;;;;5004919;28;20022;-70
2023/09/05 12:51:20;;;;;;;3.33;1.83;;;24.10;95.70;;;;;;5002520;28;20034;-74